createdAt,value
2022-10-15T00:00:08.300Z,27.27
2022-10-15T00:02:34.702Z,27.10
2022-10-15T00:05:01.855Z,26.35
2022-10-15T00:07:29.157Z,26.17
2022-10-15T00:09:55.526Z,24.05
2022-10-15T00:12:21.873Z,27.02
2022-10-15T00:14:48.274Z,27.10
2022-10-15T00:17:14.623Z,26.92
2022-10-15T00:19:40.954Z,27.00
2022-10-15T00:22:07.391Z,29.48
2022-10-15T00:24:33.823Z,28.48
2022-10-15T00:27:00.225Z,27.33
2022-10-15T00:29:26.700Z,30.60
2022-10-15T00:31:53.079Z,25.92
2022-10-15T00:34:20.063Z,27.23
2022-10-15T00:36:46.400Z,26.67
2022-10-15T00:39:12.734Z,27.55
2022-10-15T00:41:44.042Z,27.10
2022-10-15T00:44:22.402Z,30.65
2022-10-15T00:46:53.802Z,30.35
2022-10-15T00:49:24.526Z,29.85
2022-10-15T00:51:57.479Z,30.00
2022-10-15T00:54:27.594Z,30.05
2022-10-15T00:56:55.124Z,32.22
2022-10-15T00:59:25.476Z,29.30
2022-10-15T01:01:52.627Z,30.17
2022-10-15T01:04:19.338Z,31.70
2022-10-15T01:06:46.218Z,31.63
2022-10-15T01:09:13.387Z,32.50
2022-10-15T01:11:43.054Z,31.30
2022-10-15T01:14:45.275Z,29.48
2022-10-15T01:17:23.882Z,26.08
2022-10-15T01:20:12.360Z,28.92
2022-10-15T01:23:04.715Z,27.77
2022-10-15T01:25:57.093Z,30.13
2022-10-15T01:28:48.730Z,32.75
2022-10-15T01:31:40.227Z,32.90
2022-10-15T01:34:32.697Z,29.92
2022-10-15T01:37:09.719Z,29.85
2022-10-15T01:39:51.030Z,33.28
2022-10-15T01:42:34.543Z,34.20
2022-10-15T01:45:07.567Z,33.40
2022-10-15T01:47:37.878Z,34.47
2022-10-15T01:50:06.362Z,32.22
2022-10-15T01:52:38.740Z,34.67
2022-10-15T01:55:16.259Z,34.30
2022-10-15T01:57:45.051Z,34.58
2022-10-15T02:00:12.251Z,36.55
2022-10-15T02:02:38.579Z,36.85
2022-10-15T02:05:15.275Z,34.80
2022-10-15T02:07:53.861Z,35.08
2022-10-15T02:10:58.929Z,33.00
2022-10-15T02:13:43.726Z,34.60
2022-10-15T02:16:27.536Z,32.90
2022-10-15T02:18:56.631Z,33.83
2022-10-15T02:21:42.907Z,35.63
2022-10-15T02:24:21.470Z,35.17
2022-10-15T02:26:51.415Z,36.00
2022-10-15T02:29:21.281Z,35.40
2022-10-15T02:31:49.960Z,34.80
2022-10-15T02:34:22.635Z,37.15
2022-10-15T02:36:49.651Z,34.95
2022-10-15T02:39:21.701Z,37.08
2022-10-15T02:41:48.997Z,34.30
2022-10-15T02:44:15.362Z,36.25
2022-10-15T02:46:41.739Z,35.70
2022-10-15T02:49:08.351Z,37.90
2022-10-15T02:51:35.905Z,37.40
2022-10-15T02:54:04.390Z,35.63
2022-10-15T02:56:31.370Z,35.85
2022-10-15T02:58:57.774Z,35.28
2022-10-15T03:01:24.254Z,33.33
2022-10-15T03:03:50.775Z,34.97
2022-10-15T03:06:17.146Z,38.70
2022-10-15T03:08:44.320Z,36.13
2022-10-15T03:11:11.658Z,35.88
2022-10-15T03:13:39.528Z,37.40
2022-10-15T03:16:10.395Z,35.70
2022-10-15T03:18:40.451Z,36.92
2022-10-15T03:21:07.338Z,34.13
2022-10-15T03:26:05.128Z,34.28
2022-10-15T03:28:31.527Z,36.20
2022-10-15T03:30:57.935Z,37.78
2022-10-15T03:33:25.228Z,40.22
2022-10-15T03:35:53.038Z,37.53
2022-10-15T03:38:20.003Z,34.25
2022-10-15T03:40:46.998Z,36.58
2022-10-15T03:43:13.378Z,35.20
2022-10-15T03:45:39.709Z,37.15
2022-10-15T03:48:06.592Z,37.63
2022-10-15T03:50:33.124Z,36.13
2022-10-15T03:52:59.472Z,34.83
2022-10-15T03:55:26.010Z,35.45
2022-10-15T03:57:52.346Z,40.15
2022-10-15T04:00:18.877Z,35.25
2022-10-15T04:02:45.246Z,38.22
2022-10-15T04:05:11.578Z,35.03
2022-10-15T04:07:37.958Z,41.97
2022-10-15T04:10:04.424Z,32.55
2022-10-15T04:12:30.864Z,30.50
2022-10-15T04:14:57.277Z,33.70
2022-10-15T04:17:23.737Z,35.20
2022-10-15T04:19:50.211Z,35.80
2022-10-15T04:22:16.599Z,38.25
2022-10-15T04:24:42.941Z,39.53
2022-10-15T04:27:09.333Z,38.45
2022-10-15T04:29:35.731Z,35.25
2022-10-15T04:32:02.043Z,36.75
2022-10-15T04:34:28.401Z,36.50
2022-10-15T04:36:54.788Z,34.40
2022-10-15T04:39:21.396Z,34.33
2022-10-15T04:41:47.863Z,37.85
2022-10-15T04:44:14.411Z,40.25
2022-10-15T04:46:40.822Z,36.58
2022-10-15T04:49:07.301Z,37.58
2022-10-15T04:51:33.636Z,42.00
2022-10-15T04:54:01.652Z,38.15
2022-10-15T04:56:28.979Z,38.53
2022-10-15T04:58:55.666Z,41.83
2022-10-15T05:01:22.859Z,40.55
2022-10-15T05:03:49.607Z,40.10
2022-10-15T05:06:19.950Z,40.35
2022-10-15T05:08:47.265Z,36.25
2022-10-15T05:11:25.219Z,41.00
2022-10-15T05:13:52.616Z,41.97
2022-10-15T05:16:21.809Z,41.13
2022-10-15T05:18:50.670Z,42.80
2022-10-15T05:21:18.794Z,42.28
2022-10-15T05:23:45.552Z,40.90
2022-10-15T05:26:17.159Z,40.60
2022-10-15T05:28:43.707Z,35.63
2022-10-15T05:31:18.759Z,38.55
2022-10-15T05:33:47.405Z,38.03
2022-10-15T05:36:24.409Z,35.22
2022-10-15T05:38:56.599Z,37.85
2022-10-15T05:41:23.676Z,39.00
2022-10-15T05:43:51.346Z,40.92
2022-10-15T05:46:18.667Z,34.42
2022-10-15T05:48:49.922Z,39.47
2022-10-15T05:51:16.702Z,38.03
2022-10-15T05:53:43.664Z,40.42
2022-10-15T05:56:10.266Z,39.55
2022-10-15T05:58:37.619Z,42.90
2022-10-15T06:01:08.512Z,45.97
2022-10-15T06:03:35.260Z,43.60
2022-10-15T06:06:01.968Z,40.67
2022-10-15T06:08:29.830Z,39.55
2022-10-15T06:11:05.222Z,40.90
2022-10-15T06:13:34.829Z,43.13
2022-10-15T06:16:03.897Z,42.03
2022-10-15T06:18:30.261Z,41.10
2022-10-15T06:20:56.580Z,40.05
2022-10-15T06:23:24.300Z,39.08
2022-10-15T06:25:51.250Z,43.08
2022-10-15T06:28:17.998Z,39.55
2022-10-15T06:30:44.663Z,43.15
2022-10-15T06:35:42.534Z,43.58
2022-10-15T06:38:09.055Z,42.50
2022-10-15T06:40:35.401Z,41.45
2022-10-15T06:43:07.836Z,40.42
2022-10-15T06:45:38.768Z,44.05
2022-10-15T06:48:06.818Z,42.40
2022-10-15T06:50:34.907Z,44.42
2022-10-15T06:53:01.341Z,44.05
2022-10-15T06:55:28.967Z,47.58
2022-10-15T06:57:56.338Z,44.90
2022-10-15T07:00:24.040Z,41.13
2022-10-15T07:02:51.548Z,42.80
2022-10-15T07:05:19.222Z,40.03
2022-10-15T07:07:56.283Z,41.90
2022-10-15T07:10:23.953Z,40.83
2022-10-15T07:12:50.311Z,40.60
2022-10-15T07:15:17.275Z,42.17
2022-10-15T07:18:01.213Z,39.92
2022-10-15T07:20:29.610Z,45.03
2022-10-15T07:22:58.530Z,46.17
2022-10-15T07:25:26.743Z,44.75
2022-10-15T07:27:55.222Z,45.25
2022-10-15T07:30:22.678Z,45.35
2022-10-15T07:32:50.287Z,47.30
2022-10-15T07:35:16.907Z,47.33
2022-10-15T07:37:43.236Z,49.88
2022-10-15T07:40:10.163Z,53.15
2022-10-15T07:42:36.639Z,48.55
2022-10-15T07:45:03.360Z,51.45
2022-10-15T07:47:29.748Z,51.88
2022-10-15T07:49:56.975Z,50.28
2022-10-15T07:52:23.516Z,52.83
2022-10-15T07:54:50.194Z,57.28
2022-10-15T07:57:17.638Z,59.50
2022-10-15T07:59:44.211Z,60.22
2022-10-15T08:02:17.995Z,61.25
2022-10-15T08:04:44.720Z,56.58
2022-10-15T08:07:11.056Z,60.97
2022-10-15T08:09:37.475Z,56.38
2022-10-15T08:12:06.184Z,60.67
2022-10-15T08:14:33.886Z,57.83
2022-10-15T08:17:01.629Z,62.80
2022-10-15T08:19:28.008Z,67.47
2022-10-15T08:21:54.499Z,68.70
2022-10-15T08:24:21.091Z,66.07
2022-10-15T08:26:47.449Z,68.55
2022-10-15T08:29:14.134Z,60.03
2022-10-15T08:31:40.468Z,67.20
2022-10-15T08:34:07.438Z,67.15
2022-10-15T08:36:34.534Z,65.57
2022-10-15T08:39:00.968Z,65.70
2022-10-15T08:41:45.393Z,72.63
2022-10-15T08:44:38.273Z,63.78
2022-10-15T08:47:19.698Z,62.88
2022-10-15T08:49:51.858Z,64.90
2022-10-15T08:52:28.833Z,62.47
2022-10-15T08:54:56.441Z,59.30
2022-10-15T08:57:28.790Z,63.97
2022-10-15T09:00:10.697Z,59.15
2022-10-15T09:03:02.992Z,58.60
2022-10-15T09:05:52.869Z,58.30
2022-10-15T09:08:30.339Z,58.65
2022-10-15T09:11:15.227Z,56.83
2022-10-15T09:13:44.301Z,57.15
2022-10-15T09:16:33.056Z,53.90
2022-10-15T09:19:04.657Z,51.92
2022-10-15T09:21:32.865Z,55.28
2022-10-15T09:24:02.285Z,53.17
2022-10-15T09:26:53.790Z,52.22
2022-10-15T09:29:36.868Z,50.92
2022-10-15T09:32:08.998Z,49.03
2022-10-15T09:34:54.343Z,47.60
2022-10-15T09:38:01.095Z,47.38
2022-10-15T09:40:52.528Z,42.88
2022-10-15T09:43:34.783Z,38.47
2022-10-15T09:46:02.479Z,35.72
2022-10-15T09:48:33.543Z,36.28
2022-10-15T09:51:23.179Z,35.00
2022-10-15T09:54:00.776Z,34.78
2022-10-15T09:56:35.436Z,32.88
2022-10-15T09:59:03.670Z,32.08
2022-10-15T10:01:33.472Z,29.25
2022-10-15T10:04:17.603Z,27.10
2022-10-15T10:06:53.754Z,27.90
2022-10-15T10:09:24.076Z,24.83
2022-10-15T10:11:54.161Z,30.27
2022-10-15T10:14:25.426Z,26.90
2022-10-15T10:17:21.562Z,25.00
2022-10-15T10:20:10.080Z,24.17
2022-10-15T10:22:54.650Z,28.45
2022-10-15T10:25:27.104Z,23.60
2022-10-15T10:27:55.281Z,22.67
2022-10-15T10:30:22.005Z,23.90
2022-10-15T10:32:54.231Z,23.77
2022-10-15T10:35:23.747Z,22.75
2022-10-15T10:37:50.973Z,28.52
2022-10-15T10:40:23.226Z,21.67
2022-10-15T10:43:11.240Z,23.08
2022-10-15T10:45:37.856Z,18.83
2022-10-15T10:48:21.956Z,18.90
2022-10-15T10:50:48.672Z,17.38
2022-10-15T10:53:23.328Z,19.10
2022-10-15T10:55:51.840Z,23.30
2022-10-15T10:58:24.858Z,18.33
2022-10-15T11:00:55.349Z,20.13
2022-10-15T11:03:40.033Z,18.90
2022-10-15T11:06:12.076Z,19.88
2022-10-15T11:08:53.390Z,21.00
2022-10-15T11:12:01.614Z,20.83
2022-10-15T11:14:49.408Z,19.67
2022-10-15T11:17:27.905Z,17.98
2022-10-15T11:20:26.239Z,15.52
2022-10-15T11:23:28.267Z,15.73
2022-10-15T11:26:15.927Z,15.15
2022-10-15T11:28:59.519Z,13.30
2022-10-15T11:32:01.720Z,13.07
2022-10-15T11:34:44.331Z,12.40
2022-10-15T11:37:13.345Z,13.35
2022-10-15T11:40:01.923Z,14.13
2022-10-15T11:42:43.791Z,10.13
2022-10-15T11:45:16.242Z,12.40
2022-10-15T11:48:00.004Z,11.32
2022-10-15T11:50:45.599Z,8.65
2022-10-15T11:53:40.259Z,7.67
2022-10-15T11:56:11.525Z,8.45
2022-10-15T11:58:46.757Z,8.13
2022-10-15T12:01:23.250Z,10.57
2022-10-15T12:03:56.876Z,7.25
2022-10-15T12:06:28.415Z,6.22
2022-10-15T12:08:57.327Z,8.18
2022-10-15T12:11:31.255Z,9.13
2022-10-15T12:14:20.271Z,7.20
2022-10-15T12:17:04.057Z,6.82
2022-10-15T12:19:47.931Z,5.30
2022-10-15T12:22:50.828Z,7.30
2022-10-15T12:25:35.463Z,5.57
2022-10-15T12:28:04.898Z,4.95
2022-10-15T12:30:34.429Z,5.53
2022-10-15T12:33:02.443Z,4.63
2022-10-15T12:35:36.114Z,3.95
2022-10-15T12:38:11.708Z,4.00
2022-10-15T12:40:39.738Z,4.10
2022-10-15T12:43:15.840Z,3.28
2022-10-15T12:45:54.174Z,2.97
2022-10-15T12:48:40.870Z,2.80
2022-10-15T12:51:16.550Z,2.13
2022-10-15T12:53:44.583Z,2.83
2022-10-15T12:56:12.462Z,2.75
2022-10-15T12:58:40.881Z,1.50
2022-10-15T13:01:16.070Z,2.63
2022-10-15T13:03:56.022Z,2.35
2022-10-15T13:06:23.840Z,2.72
2022-10-15T13:09:11.933Z,2.10
2022-10-15T13:11:41.628Z,1.38
2022-10-15T13:14:31.686Z,1.35
2022-10-15T13:17:00.827Z,1.00
2022-10-15T13:19:31.960Z,2.05
2022-10-15T13:22:01.266Z,2.45
2022-10-15T13:24:30.411Z,1.40
2022-10-15T13:26:59.941Z,1.70
2022-10-15T13:29:28.036Z,1.35
2022-10-15T13:31:56.720Z,0.68
2022-10-15T13:34:36.451Z,1.35
2022-10-15T13:37:04.598Z,0.77
2022-10-15T13:39:35.207Z,1.00
2022-10-15T13:42:16.269Z,2.28
2022-10-15T13:44:44.508Z,2.92
2022-10-15T13:47:35.262Z,1.00
2022-10-15T13:50:17.761Z,1.17
2022-10-15T13:52:48.708Z,0.90
2022-10-15T13:55:29.989Z,0.77
2022-10-15T13:58:03.061Z,1.08
2022-10-15T14:00:33.541Z,0.88
2022-10-15T14:03:22.207Z,0.88
2022-10-15T14:05:51.686Z,2.03
2022-10-15T14:08:32.688Z,3.80
2022-10-15T14:10:59.787Z,1.10
2022-10-15T14:13:27.383Z,1.00
2022-10-15T14:16:00.570Z,1.10
2022-10-15T14:18:36.374Z,1.77
2022-10-15T14:21:09.627Z,2.35
2022-10-15T14:23:35.958Z,1.90
2022-10-15T14:26:03.618Z,1.35
2022-10-15T14:28:32.727Z,2.35
2022-10-15T14:31:01.083Z,1.10
2022-10-15T14:33:36.531Z,1.10
2022-10-15T14:36:04.459Z,2.75
2022-10-15T14:38:31.687Z,1.05
2022-10-15T14:41:04.788Z,1.23
2022-10-15T14:43:37.225Z,1.27
2022-10-15T14:46:11.554Z,1.25
2022-10-15T14:48:40.541Z,1.30
2022-10-15T14:51:12.676Z,1.10
2022-10-15T14:53:45.667Z,1.23
2022-10-15T14:56:20.776Z,1.10
2022-10-15T14:58:52.190Z,1.10
2022-10-15T15:01:20.750Z,1.30
2022-10-15T15:03:50.613Z,1.20
2022-10-15T15:06:17.233Z,1.10
2022-10-15T15:08:43.810Z,1.00
2022-10-15T15:11:17.963Z,1.20
2022-10-15T15:13:45.447Z,2.38
2022-10-15T15:16:14.113Z,1.05
2022-10-15T15:18:43.684Z,1.20
2022-10-15T15:21:15.406Z,1.42
2022-10-15T15:23:42.906Z,2.22
2022-10-15T15:26:09.270Z,1.10
2022-10-15T15:28:35.781Z,3.13
2022-10-15T15:31:12.504Z,0.98
2022-10-15T15:33:38.873Z,1.20
2022-10-15T15:36:17.557Z,2.67
2022-10-15T15:38:47.145Z,1.75
2022-10-15T15:41:18.906Z,1.58
2022-10-15T15:43:46.870Z,1.30
2022-10-15T15:46:14.143Z,0.80
2022-10-15T15:48:40.797Z,1.00
2022-10-15T15:51:20.917Z,1.15
2022-10-15T15:53:48.161Z,1.33
2022-10-15T15:56:14.677Z,3.22
2022-10-15T15:58:41.034Z,1.30
2022-10-15T16:01:07.440Z,1.98
2022-10-15T16:03:33.768Z,1.40
2022-10-15T16:06:00.126Z,1.75
2022-10-15T16:08:26.475Z,1.15
2022-10-15T16:10:52.808Z,1.27
2022-10-15T16:13:19.118Z,2.28
2022-10-15T16:15:45.482Z,1.23
2022-10-15T16:18:12.150Z,1.77
2022-10-15T16:20:40.684Z,1.42
2022-10-15T16:23:09.109Z,1.30
2022-10-15T16:25:35.434Z,1.33
2022-10-15T16:28:02.049Z,1.77
2022-10-15T16:30:28.735Z,2.15
2022-10-15T16:32:55.318Z,1.50
2022-10-15T16:35:21.763Z,2.45
2022-10-15T16:37:48.193Z,2.15
2022-10-15T16:40:15.678Z,2.03
2022-10-15T16:42:42.028Z,2.15
2022-10-15T16:45:10.254Z,1.60
2022-10-15T16:47:36.647Z,1.95
2022-10-15T16:50:03.613Z,1.33
2022-10-15T16:52:29.978Z,1.58
2022-10-15T16:54:56.311Z,3.45
2022-10-15T16:57:22.639Z,1.58
2022-10-15T16:59:49.014Z,6.72
2022-10-15T17:02:15.363Z,2.92
2022-10-15T17:04:41.715Z,1.58
2022-10-15T17:07:08.177Z,2.20
2022-10-15T17:09:34.726Z,2.13
2022-10-15T17:12:01.738Z,2.63
2022-10-15T17:14:28.089Z,1.92
2022-10-15T17:16:54.506Z,2.90
2022-10-15T17:19:23.630Z,2.10
2022-10-15T17:21:50.393Z,2.22
2022-10-15T17:24:18.416Z,3.53
2022-10-15T17:26:46.135Z,2.55
2022-10-15T17:29:20.652Z,4.07
2022-10-15T17:31:48.493Z,2.72
2022-10-15T17:34:16.060Z,6.30
2022-10-15T17:36:47.026Z,2.22
2022-10-15T17:39:16.098Z,3.35
2022-10-15T17:41:42.745Z,2.30
2022-10-15T17:44:11.132Z,5.07
2022-10-15T17:46:37.781Z,2.80
2022-10-15T17:49:04.394Z,3.05
2022-10-15T17:51:32.526Z,2.15
2022-10-15T17:54:00.479Z,1.70
2022-10-15T17:56:29.971Z,1.90
2022-10-15T17:58:57.304Z,2.03
2022-10-15T18:01:39.289Z,2.40
2022-10-15T18:04:13.728Z,2.38
2022-10-15T18:06:44.046Z,1.65
2022-10-15T18:09:10.495Z,1.60
2022-10-15T18:11:36.923Z,1.30
2022-10-15T18:14:03.947Z,1.88
2022-10-15T18:16:30.438Z,1.33
2022-10-15T18:18:56.892Z,2.47
2022-10-15T18:21:25.239Z,1.80
2022-10-15T18:23:51.804Z,1.42
2022-10-15T18:26:21.615Z,4.68
2022-10-15T18:28:52.975Z,1.55
2022-10-15T18:31:19.933Z,1.20
2022-10-15T18:33:48.890Z,1.30
2022-10-15T18:36:24.857Z,1.50
2022-10-15T18:41:29.036Z,1.50
2022-10-15T18:43:57.875Z,1.42
2022-10-15T18:46:25.032Z,2.10
2022-10-15T18:48:51.455Z,1.40
2022-10-15T18:51:17.948Z,2.80
2022-10-15T18:53:44.325Z,2.55
2022-10-15T18:56:13.723Z,1.88
2022-10-15T18:58:42.865Z,1.40
2022-10-15T19:01:11.467Z,3.42
2022-10-15T19:03:37.923Z,3.22
2022-10-15T19:06:04.468Z,1.98
2022-10-15T19:08:31.044Z,1.85
2022-10-15T19:11:08.503Z,1.92
2022-10-15T19:13:36.498Z,1.15
2022-10-15T19:16:04.143Z,1.05
2022-10-15T19:18:31.921Z,1.85
2022-10-15T19:20:58.935Z,1.48
2022-10-15T19:23:25.390Z,1.58
2022-10-15T19:25:52.152Z,2.30
2022-10-15T19:28:18.735Z,1.83
2022-10-15T19:30:53.918Z,4.82
2022-10-15T19:33:20.396Z,3.30
2022-10-15T19:35:46.830Z,1.83
2022-10-15T19:38:13.227Z,1.63
2022-10-15T19:40:43.726Z,3.17
2022-10-15T19:43:13.739Z,2.97
2022-10-15T19:45:45.210Z,1.80
2022-10-15T19:48:13.745Z,0.90
2022-10-15T19:50:42.608Z,1.60
2022-10-15T19:53:11.483Z,1.77
2022-10-15T19:55:39.386Z,1.17
2022-10-15T19:58:06.723Z,2.70
2022-10-15T20:00:33.064Z,2.25
2022-10-15T20:02:59.705Z,3.85
2022-10-15T20:05:26.235Z,3.75
2022-10-15T20:07:52.823Z,1.08
2022-10-15T20:10:23.573Z,1.52
2022-10-15T20:12:52.183Z,1.95
2022-10-15T20:15:18.648Z,1.70
2022-10-15T20:17:45.088Z,1.40
2022-10-15T20:20:11.417Z,1.83
2022-10-15T20:22:37.744Z,3.63
2022-10-15T20:25:04.420Z,2.90
2022-10-15T20:27:30.792Z,4.95
2022-10-15T20:29:57.155Z,5.78
2022-10-15T20:32:34.200Z,5.15
2022-10-15T20:35:02.146Z,4.57
2022-10-15T20:37:28.561Z,2.42
2022-10-15T20:39:54.875Z,4.32
2022-10-15T20:42:21.455Z,3.55
2022-10-15T20:44:47.779Z,2.97
2022-10-15T20:47:15.974Z,6.60
2022-10-15T20:49:46.550Z,3.72
2022-10-15T20:52:14.266Z,3.22
2022-10-15T20:54:40.657Z,2.72
2022-10-15T20:57:07.362Z,3.00
2022-10-15T20:59:33.730Z,2.60
2022-10-15T21:02:00.194Z,2.85
2022-10-15T21:04:26.753Z,3.25
2022-10-15T21:06:53.127Z,3.20
2022-10-15T21:09:19.480Z,5.32
2022-10-15T21:11:46.788Z,3.45
2022-10-15T21:14:13.676Z,3.30
2022-10-15T21:16:40.789Z,3.60
2022-10-15T21:19:07.304Z,2.70
2022-10-15T21:21:33.751Z,4.07
2022-10-15T21:24:00.179Z,4.15
2022-10-15T21:26:26.736Z,3.45
2022-10-15T21:28:59.909Z,4.78
2022-10-15T21:31:27.046Z,3.55
2022-10-15T21:33:55.113Z,3.40
2022-10-15T21:36:27.046Z,3.25
2022-10-15T21:38:54.387Z,3.33
2022-10-15T21:41:22.478Z,4.38
2022-10-15T21:46:16.656Z,2.88
2022-10-15T21:48:43.564Z,2.95
2022-10-15T21:51:15.728Z,2.92
2022-10-15T21:53:42.268Z,4.25
2022-10-15T21:56:09.527Z,1.85
2022-10-15T21:58:37.864Z,4.30
2022-10-15T22:01:14.541Z,2.00
2022-10-15T22:03:44.899Z,1.95
2022-10-15T22:06:12.081Z,3.25
2022-10-15T22:08:39.180Z,1.70
2022-10-15T22:11:23.872Z,3.70
2022-10-15T22:13:54.005Z,5.00
2022-10-15T22:16:21.288Z,2.67
2022-10-15T22:18:48.127Z,1.95
2022-10-15T22:21:20.765Z,3.15
2022-10-15T22:23:51.547Z,8.40
2022-10-15T22:26:19.622Z,2.20
2022-10-15T22:28:46.778Z,2.78
2022-10-15T22:31:16.655Z,3.55
2022-10-15T22:33:44.563Z,2.00
2022-10-15T22:36:17.108Z,3.67
2022-10-15T22:38:45.833Z,2.88
2022-10-15T22:41:13.529Z,3.33
2022-10-15T22:43:40.350Z,4.68
2022-10-15T22:46:07.363Z,1.77
2022-10-15T22:48:39.876Z,2.70
2022-10-15T22:51:08.444Z,2.97
2022-10-15T22:53:34.941Z,3.35
2022-10-15T22:56:11.596Z,2.55
2022-10-15T22:58:38.201Z,2.88
2022-10-15T23:01:25.537Z,5.40
2022-10-15T23:03:54.965Z,4.28
2022-10-15T23:06:22.307Z,4.40
2022-10-15T23:08:49.465Z,3.00
2022-10-15T23:11:21.950Z,3.88
2022-10-15T23:13:53.499Z,3.92
2022-10-15T23:16:23.834Z,6.22
2022-10-15T23:18:56.486Z,3.72
2022-10-15T23:21:40.286Z,3.70
2022-10-15T23:24:07.367Z,6.75
2022-10-15T23:26:34.087Z,4.20
2022-10-15T23:29:01.843Z,4.90
2022-10-15T23:31:30.703Z,3.88
2022-10-15T23:33:57.849Z,5.07
2022-10-15T23:36:25.942Z,3.60
2022-10-15T23:38:57.910Z,3.55
2022-10-15T23:41:25.538Z,3.75
2022-10-15T23:43:52.515Z,5.40
2022-10-15T23:46:19.174Z,5.88
2022-10-15T23:48:46.333Z,3.47
2022-10-15T23:51:25.184Z,4.65
2022-10-15T23:53:52.370Z,5.35
2022-10-15T23:56:19.406Z,7.18
2022-10-15T23:58:50.738Z,5.97
